Time;durP1;ratioP1;P1;durP2;ratioP2;P2;SDS_P1;SDS_P2;PMS_P1;PMS_P2;Temp;Humidity;BMP_temperature;BMP_pressure;BME280_temperature;BME280_humidity;BME280_pressure;Samples;Min_cycle;Max_cycle;Signal;HPM_P1;HPM_P2
2023/03/10 00:00:47;;;;;;;5.07;3.70;;;;;;;3.87;100.00;98634.63;5082660;28;20036;-64
2023/03/10 00:03:14;;;;;;;5.45;3.90;;;;;;;3.84;100.00;98625.22;5106833;28;20094;-64
2023/03/10 00:05:42;;;;;;;4.90;3.38;;;;;;;3.88;100.00;98630.06;5106584;27;20123;-63
2023/03/10 00:08:10;;;;;;;4.57;3.33;;;;;;;3.89;100.00;98626.28;5096059;28;20410;-63
2023/03/10 00:10:37;;;;;;;6.03;3.30;;;;;;;3.93;100.00;98612.00;5097214;28;20044;-63
2023/03/10 00:13:05;;;;;;;5.70;3.28;;;;;;;3.93;100.00;98613.88;5098029;28;20036;-64
2023/03/10 00:15:33;;;;;;;4.97;3.40;;;;;;;3.94;100.00;98607.41;5101984;27;20040;-63
2023/03/10 00:18:00;;;;;;;4.80;3.53;;;;;;;3.96;100.00;98610.63;5136246;27;20479;-63
2023/03/10 00:20:28;;;;;;;6.13;3.25;;;;;;;3.98;100.00;98614.66;5137995;27;20043;-63
2023/03/10 00:22:56;;;;;;;5.30;3.40;;;;;;;4.01;100.00;98610.59;5126115;27;20053;-63
2023/03/10 00:25:23;;;;;;;5.18;3.60;;;;;;;4.04;100.00;98615.41;5116030;28;20047;-64
2023/03/10 00:27:51;;;;;;;4.85;3.60;;;;;;;4.07;100.00;98622.97;5114796;27;20052;-63
2023/03/10 00:30:19;;;;;;;4.05;3.05;;;;;;;4.07;100.00;98625.66;5115969;28;20047;-64
2023/03/10 00:32:46;;;;;;;3.53;3.20;;;;;;;4.11;100.00;98617.78;5093442;28;20047;-63
2023/03/10 00:35:14;;;;;;;3.75;3.10;;;;;;;4.16;100.00;98621.28;5112380;28;20043;-63
2023/03/10 00:37:42;;;;;;;5.10;3.40;;;;;;;4.18;100.00;98611.00;5115666;28;20051;-64
2023/03/10 00:40:13;;;;;;;4.47;3.30;;;;;;;4.19;100.00;98611.84;5098625;28;20052;-62
2023/03/10 00:42:41;;;;;;;4.55;3.22;;;;;;;4.21;100.00;98612.34;5105318;28;20040;-63
2023/03/10 00:45:09;;;;;;;3.95;3.10;;;;;;;4.25;100.00;98614.19;5096064;27;20252;-63
2023/03/10 00:47:37;;;;;;;4.03;3.10;;;;;;;4.29;100.00;98611.75;5096067;28;20044;-65
2023/03/10 00:50:05;;;;;;;5.13;3.17;;;;;;;4.32;100.00;98602.28;5078538;28;20071;-62
2023/03/10 00:52:33;;;;;;;4.38;3.33;;;;;;;4.31;100.00;98606.88;5099757;28;20122;-62
2023/03/10 00:55:00;;;;;;;4.07;3.28;;;;;;;4.31;100.00;98606.88;5115776;27;20078;-63
2023/03/10 00:57:28;;;;;;;4.25;3.28;;;;;;;4.34;100.00;98613.59;5115132;28;20047;-63
2023/03/10 00:59:56;;;;;;;3.78;3.17;;;;;;;4.38;100.00;98620.06;5098029;28;20078;-63
2023/03/10 01:02:23;;;;;;;5.03;3.40;;;;;;;4.39;100.00;98618.97;5105626;28;20048;-64
2023/03/10 01:04:51;;;;;;;5.40;3.58;;;;;;;4.41;100.00;98627.56;5097149;27;20410;-64
2023/03/10 01:07:19;;;;;;;5.28;3.55;;;;;;;4.42;100.00;98623.78;5095978;28;20139;-64
2023/03/10 01:09:46;;;;;;;6.28;3.50;;;;;;;4.43;100.00;98623.50;5095191;28;20056;-63
2023/03/10 01:12:14;;;;;;;4.03;3.17;;;;;;;4.43;100.00;98625.41;5094473;28;20091;-63
2023/03/10 01:14:42;;;;;;;4.95;3.20;;;;;;;4.44;100.00;98622.41;5107373;28;20066;-62
2023/03/10 01:17:09;;;;;;;4.70;3.25;;;;;;;4.46;100.00;98619.44;5112532;28;20062;-62
2023/03/10 01:19:37;;;;;;;4.22;3.08;;;;;;;4.47;100.00;98621.03;5102640;28;20048;-64
2023/03/10 01:22:04;;;;;;;4.18;3.20;;;;;;;4.47;100.00;98621.03;5105279;28;20048;-62
2023/03/10 01:24:32;;;;;;;6.15;3.53;;;;;;;4.48;100.00;98622.66;5116186;28;20067;-62
2023/03/10 01:27:00;;;;;;;4.05;3.10;;;;;;;4.49;100.00;98610.78;5118684;28;20047;-63
2023/03/10 01:29:27;;;;;;;4.32;3.25;;;;;;;4.49;100.00;98603.47;5117224;28;20062;-64
2023/03/10 01:31:55;;;;;;;5.93;3.83;;;;;;;4.50;100.00;98596.22;5093541;28;20040;-63
2023/03/10 01:34:23;;;;;;;5.25;3.60;;;;;;;4.49;100.00;98605.38;5094090;28;20048;-65
2023/03/10 01:36:50;;;;;;;5.20;3.65;;;;;;;4.50;100.00;98607.00;5102500;27;20472;-63
2023/03/10 01:39:18;;;;;;;4.97;3.60;;;;;;;4.52;100.00;98596.72;5102040;28;20059;-64
2023/03/10 01:41:46;;;;;;;4.15;3.35;;;;;;;4.55;100.00;98596.19;5103735;28;20035;-62
2023/03/10 01:44:18;;;;;;;5.03;3.60;;;;;;;4.55;100.00;98595.38;5114659;28;20043;-64
2023/03/10 01:46:46;;;;;;;7.15;3.92;;;;;;;4.55;100.00;98595.38;5096322;27;20048;-62
2023/03/10 01:49:41;;;;;;;6.05;4.00;;;;;;;4.55;100.00;98585.38;5115676;28;20048;-63
2023/03/10 01:52:21;;;;;;;6.25;3.70;;;;;;;4.55;100.00;98580.00;5106999;28;20051;-63
2023/03/10 01:54:57;;;;;;;6.45;3.75;;;;;;;4.56;100.00;98578.91;5093736;28;20119;-62
2023/03/10 01:57:29;;;;;;;4.75;3.80;;;;;;;4.58;100.00;98575.94;5096391;27;20139;-61
2023/03/10 01:59:57;;;;;;;6.85;4.38;;;;;;;4.60;100.00;98571.84;5093490;28;20515;-63
2023/03/10 02:02:26;;;;;;;5.40;4.00;;;;;;;4.61;100.00;98572.66;5091192;28;20395;-63
2023/03/10 02:05:14;;;;;;;5.40;3.92;;;;;;;4.62;100.00;98564.28;5079452;28;20052;-63
2023/03/10 02:08:02;;;;;;;6.50;4.15;;;;;;;4.63;100.00;98565.09;5097412;27;20047;-62
2023/03/10 02:10:30;;;;;;;6.88;4.15;;;;;;;4.60;100.00;98555.69;5096882;28;20126;-62
2023/03/10 02:12:57;;;;;;;6.57;4.15;;;;;;;4.59;100.00;98559.44;5079125;28;20465;-64
2023/03/10 02:15:25;;;;;;;6.18;4.03;;;;;;;4.61;100.00;98562.66;5076553;28;20051;-63
2023/03/10 02:18:00;;;;;;;5.68;4.13;;;;;;;4.63;100.00;98570.47;5094594;28;20510;-62
2023/03/10 02:20:51;;;;;;;5.60;4.13;;;;;;;4.65;100.00;98569.09;5108173;27;20044;-65
2023/03/10 02:23:34;;;;;;;6.15;4.25;;;;;;;4.67;100.00;98575.03;5062645;28;20074;-63
2023/03/10 02:26:16;;;;;;;6.35;4.22;;;;;;;4.69;100.00;98569.34;5093365;28;20523;-63
2023/03/10 02:28:44;;;;;;;5.80;4.13;;;;;;;4.71;100.00;98569.84;5093983;28;20048;-67
2023/03/10 02:31:13;;;;;;;6.07;4.40;;;;;;;4.73;100.00;98564.97;5112063;27;20457;-62
2023/03/10 02:33:42;;;;;;;5.93;4.15;;;;;;;4.74;100.00;98558.50;5112806;28;20054;-63
2023/03/10 02:36:16;;;;;;;8.07;4.25;;;;;;;4.74;100.00;98552.28;5092413;28;20143;-66
2023/03/10 02:38:45;;;;;;;6.88;4.00;;;;;;;4.76;100.00;98555.50;5092558;28;20044;-63
2023/03/10 02:41:31;;;;;;;6.43;4.03;;;;;;;4.77;100.00;98546.34;5095582;28;20381;-63
2023/03/10 02:44:00;;;;;;;6.50;4.57;;;;;;;4.78;100.00;98542.53;5112241;28;20043;-62
2023/03/10 02:46:30;;;;;;;6.00;4.03;;;;;;;4.79;100.00;98546.88;5095726;28;20055;-64
2023/03/10 02:49:03;;;;;;;6.50;4.40;;;;;;;4.79;100.00;98544.97;5113172;28;20387;-62
2023/03/10 02:51:45;;;;;;;6.53;4.28;;;;;;;4.78;100.00;98537.16;5083511;28;20048;-63
2023/03/10 02:54:18;;;;;;;5.75;4.25;;;;;;;4.78;100.00;98531.75;5077040;28;20048;-63
2023/03/10 02:56:46;;;;;;;7.28;4.55;;;;;;;4.78;100.00;98529.06;5093514;28;20051;-63
2023/03/10 02:59:15;;;;;;;5.85;4.05;;;;;;;4.77;100.00;98522.06;5093817;28;20052;-63
2023/03/10 03:01:47;;;;;;;7.90;4.60;;;;;;;4.77;100.00;98513.97;5111234;28;20039;-63
2023/03/10 03:04:17;;;;;;;6.78;4.35;;;;;;;4.74;100.00;98526.16;5110874;28;20548;-62
2023/03/10 03:06:46;;;;;;;6.38;4.38;;;;;;;4.73;100.00;98524.53;5095759;28;20047;-63
2023/03/10 03:09:14;;;;;;;6.70;4.28;;;;;;;4.71;100.00;98524.00;5115006;28;20206;-62
2023/03/10 03:11:42;;;;;;;7.53;4.85;;;;;;;4.73;100.00;98515.63;5112942;28;20051;-63
2023/03/10 03:14:09;;;;;;;7.28;4.90;;;;;;;4.74;100.00;98519.91;5113130;28;20046;-64
2023/03/10 03:16:38;;;;;;;7.25;4.13;;;;;;;4.74;100.00;98515.34;5095240;28;20044;-63
2023/03/10 03:19:09;;;;;;;8.02;4.30;;;;;;;4.75;100.00;98511.56;5113739;28;20044;-62
2023/03/10 03:21:38;;;;;;;6.55;4.50;;;;;;;4.76;100.00;98512.34;5075760;28;20048;-62
2023/03/10 03:24:06;;;;;;;6.82;4.43;;;;;;;4.74;100.00;98511.81;5111427;28;20043;-63
2023/03/10 03:26:34;;;;;;;7.57;4.50;;;;;;;4.76;100.00;98506.94;5112505;28;20078;-63
2023/03/10 03:29:11;;;;;;;5.68;4.03;;;;;;;4.77;100.00;98511.28;5111807;28;20134;-65
2023/03/10 03:31:40;;;;;;;6.65;3.97;;;;;;;4.78;100.00;98513.66;5110826;28;20051;-64
2023/03/10 03:34:16;;;;;;;6.35;4.70;;;;;;;4.80;100.00;98513.38;5112286;28;20044;-64
2023/03/10 03:36:46;;;;;;;5.07;4.00;;;;;;;4.78;100.00;98515.56;5100196;28;20116;-64
2023/03/10 03:39:19;;;;;;;7.10;4.53;;;;;;;4.76;100.00;98512.34;5113201;28;20113;-64
2023/03/10 03:41:52;;;;;;;6.18;4.18;;;;;;;4.76;100.00;98517.75;5096429;28;20108;-64
2023/03/10 03:44:20;;;;;;;6.10;4.15;;;;;;;4.76;100.00;98509.66;5110797;27;20052;-63
2023/03/10 03:46:49;;;;;;;7.72;4.40;;;;;;;4.75;100.00;98513.44;5115933;28;20075;-63
2023/03/10 03:49:17;;;;;;;6.88;4.15;;;;;;;4.78;100.00;98504.78;5098105;28;20468;-62
2023/03/10 03:51:46;;;;;;;6.65;4.13;;;;;;;4.79;100.00;98498.31;5097135;28;20456;-63
2023/03/10 03:54:13;;;;;;;8.00;4.80;;;;;;;4.79;100.00;98503.69;5104486;27;20097;-62
2023/03/10 03:56:41;;;;;;;6.95;4.70;;;;;;;4.77;100.00;98503.97;5115837;28;20047;-63
2023/03/10 03:59:13;;;;;;;6.50;3.95;;;;;;;4.76;100.00;98504.25;5093531;28;20147;-62
2023/03/10 04:01:41;;;;;;;6.22;4.35;;;;;;;4.78;100.00;98507.47;5095755;28;20056;-62
2023/03/10 04:04:09;;;;;;;7.50;4.30;;;;;;;4.78;100.00;98502.88;5099935;27;20053;-62
2023/03/10 04:06:37;;;;;;;6.72;4.50;;;;;;;4.79;100.00;98506.41;5098399;28;20051;-63
2023/03/10 04:09:09;;;;;;;5.75;4.10;;;;;;;4.79;100.00;98503.69;5114082;28;20043;-63
2023/03/10 04:11:38;;;;;;;7.03;4.80;;;;;;;4.81;100.00;98507.72;5115909;28;20427;-63
2023/03/10 04:14:06;;;;;;;8.15;5.20;;;;;;;4.84;100.00;98495.56;5115394;28;20060;-63
2023/03/10 04:16:34;;;;;;;7.45;4.95;;;;;;;4.84;100.00;98492.84;5115517;27;20097;-63
2023/03/10 04:19:06;;;;;;;6.22;4.28;;;;;;;4.82;100.00;98492.34;5109383;28;20123;-64
2023/03/10 04:21:36;;;;;;;8.35;5.13;;;;;;;4.81;100.00;98491.53;5095626;28;20044;-64
2023/03/10 04:24:04;;;;;;;8.10;5.22;;;;;;;4.84;100.00;98484.75;5095428;28;20048;-64
2023/03/10 04:26:32;;;;;;;9.93;5.30;;;;;;;4.86;100.00;98493.38;5088508;28;20052;-63
2023/03/10 04:29:01;;;;;;;8.35;4.93;;;;;;;4.87;100.00;98492.28;5096766;28;20079;-64
2023/03/10 04:31:31;;;;;;;8.90;5.00;;;;;;;4.88;100.00;98496.56;5116011;28;20054;-63
2023/03/10 04:34:01;;;;;;;7.80;4.65;;;;;;;4.89;100.00;98482.78;5116071;28;20055;-63
2023/03/10 04:36:29;;;;;;;7.68;5.28;;;;;;;4.91;100.00;98485.22;5115809;27;20051;-64
2023/03/10 04:39:00;;;;;;;6.70;4.63;;;;;;;4.95;100.00;98482.72;5106964;28;20050;-63
2023/03/10 04:41:30;;;;;;;7.75;4.82;;;;;;;4.98;100.00;98479.44;5095100;28;20052;-63
2023/03/10 04:43:58;;;;;;;9.48;5.40;;;;;;;4.99;100.00;98471.06;5094854;28;20058;-63
2023/03/10 04:46:27;;;;;;;9.27;5.45;;;;;;;5.01;100.00;98478.88;5101316;27;20092;-63
2023/03/10 04:48:56;;;;;;;7.30;5.30;;;;;;;5.02;100.00;98469.69;5114922;28;20047;-63
2023/03/10 04:51:24;;;;;;;9.52;6.05;;;;;;;5.01;100.00;98474.28;5081505;28;20044;-62
2023/03/10 04:53:55;;;;;;;9.18;6.07;;;;;;;5.02;100.00;98459.69;5098684;28;20082;-63
2023/03/10 04:56:28;;;;;;;9.73;6.28;;;;;;;5.04;100.00;98462.91;5113381;28;20044;-61
2023/03/10 04:58:56;;;;;;;10.35;6.20;;;;;;;5.06;100.00;98462.63;5090981;28;20063;-62
2023/03/10 05:01:31;;;;;;;10.85;6.10;;;;;;;5.07;100.00;98465.00;5094207;27;20063;-64
2023/03/10 05:04:05;;;;;;;10.52;5.70;;;;;;;5.10;100.00;98460.97;5092566;28;20098;-65
2023/03/10 05:06:34;;;;;;;10.40;5.55;;;;;;;5.12;100.00;98464.97;5098772;27;20043;-64
2023/03/10 05:09:33;;;;;;;11.15;6.32;;;;;;;5.15;100.00;98458.19;5075646;28;20056;-62
2023/03/10 05:12:00;;;;;;;9.45;5.25;;;;;;;5.18;100.00;98457.59;5102906;28;20055;-64
2023/03/10 05:14:31;;;;;;;10.13;5.22;;;;;;;5.22;100.00;98457.81;5094277;28;20044;-64
2023/03/10 05:16:59;;;;;;;9.23;4.85;;;;;;;5.27;100.00;98458.56;5099496;28;20109;-62
2023/03/10 05:19:27;;;;;;;8.63;5.07;;;;;;;5.29;100.00;98448.28;5117218;27;20117;-62
2023/03/10 05:21:57;;;;;;;7.72;4.47;;;;;;;5.31;100.00;98439.88;5121674;28;20052;-61
2023/03/10 05:24:24;;;;;;;8.05;4.15;;;;;;;5.35;100.00;98446.31;5102547;28;20074;-64
2023/03/10 05:26:52;;;;;;;9.23;3.83;;;;;;;5.40;100.00;98448.91;5089705;28;20111;-65
2023/03/10 05:29:20;;;;;;;9.18;4.95;;;;;;;5.47;100.00;98454.75;5083763;28;20514;-64
2023/03/10 05:31:53;;;;;;;10.68;4.40;;;;;;;5.50;100.00;98447.97;5077939;28;20051;-64
2023/03/10 05:34:26;;;;;;;10.95;4.05;;;;;;;5.52;100.00;98445.78;5077045;28;20055;-63
2023/03/10 05:36:57;;;;;;;8.18;3.95;;;;;;;5.60;100.00;98447.81;5093960;28;20072;-64
2023/03/10 05:39:26;;;;;;;10.85;4.00;;;;;;;5.68;100.00;98451.75;5098741;27;20047;-63
2023/03/10 05:41:56;;;;;;;7.65;3.53;;;;;;;5.75;100.00;98454.91;5113380;28;20047;-64
2023/03/10 05:44:27;;;;;;;10.65;4.00;;;;;;;5.80;100.00;98454.81;5113492;28;20050;-63
2023/03/10 05:46:55;;;;;;;11.32;3.95;;;;;;;5.85;100.00;98453.94;5111109;28;20116;-62
2023/03/10 05:49:22;;;;;;;11.68;4.00;;;;;;;5.88;100.00;98459.53;5114278;27;20083;-64
2023/03/10 05:51:51;;;;;;;9.68;3.80;;;;;;;5.89;100.00;98455.75;5113482;28;20051;-62
2023/03/10 05:54:20;;;;;;;9.10;3.70;;;;;;;5.89;100.00;98466.56;5113207;28;20047;-63
2023/03/10 05:56:47;;;;;;;9.70;4.28;;;;;;;5.91;100.00;98467.03;5108980;27;20051;-62
2023/03/10 05:59:16;;;;;;;11.10;4.10;;;;;;;5.93;100.00;98466.75;5113111;28;20051;-62
2023/03/10 06:01:43;;;;;;;13.13;4.70;;;;;;;5.94;100.00;98457.56;5113516;27;20047;-63
2023/03/10 06:04:11;;;;;;;13.15;3.72;;;;;;;5.96;100.00;98456.19;5113665;28;20044;-63
2023/03/10 06:06:39;;;;;;;12.10;4.32;;;;;;;5.94;100.00;98463.81;5102546;28;20066;-64
2023/03/10 06:09:06;;;;;;;13.63;5.55;;;;;;;5.93;100.00;98455.94;5095569;28;20560;-65
2023/03/10 06:11:35;;;;;;;17.02;5.13;;;;;;;5.92;100.00;98455.16;5109711;27;20055;-63
2023/03/10 06:14:03;;;;;;;12.50;4.93;;;;;;;5.91;100.00;98452.72;5115027;28;20079;-64
2023/03/10 06:16:31;;;;;;;12.82;4.68;;;;;;;5.90;100.00;98451.13;5098226;28;20500;-64
2023/03/10 06:18:59;;;;;;;8.15;4.13;;;;;;;5.91;100.00;98458.94;4388550;28;10000494;-65
2023/03/10 06:21:28;;;;;;;15.43;4.70;;;;;;;5.90;100.00;98462.75;5093576;27;20056;-63
2023/03/10 06:23:56;;;;;;;11.48;4.78;;;;;;;5.89;100.00;98466.56;5091192;28;20093;-63
2023/03/10 06:26:24;;;;;;;11.02;5.10;;;;;;;5.88;100.00;98467.63;5092538;28;20559;-65
2023/03/10 06:28:51;;;;;;;8.32;4.50;;;;;;;5.83;100.00;98470.44;5073659;28;20156;-65
2023/03/10 06:31:23;;;;;;;11.10;4.95;;;;;;;5.78;100.00;98475.91;5089417;28;20052;-65
2023/03/10 06:33:51;;;;;;;10.85;5.45;;;;;;;5.77;100.00;98477.00;5105013;27;20115;-63
2023/03/10 06:36:19;;;;;;;10.75;5.60;;;;;;;5.77;100.00;98477.00;5089214;28;20078;-63
2023/03/10 06:38:47;;;;;;;15.18;6.43;;;;;;;5.78;100.00;98475.13;5110981;28;20092;-66
2023/03/10 06:41:16;;;;;;;15.73;8.68;;;;;;;5.75;100.00;98482.72;5109916;28;20054;-64
2023/03/10 06:43:44;;;;;;;13.60;7.03;;;;;;;5.72;100.00;98483.31;5109748;27;20061;-65
2023/03/10 06:46:12;;;;;;;12.85;6.88;;;;;;;5.69;100.00;98480.38;5107974;28;20058;-63
2023/03/10 06:48:41;;;;;;;12.38;7.03;;;;;;;5.66;100.00;98473.66;5109214;28;20047;-65
2023/03/10 06:51:13;;;;;;;14.15;6.75;;;;;;;5.65;100.00;98482.88;5109129;28;20058;-64
2023/03/10 06:53:41;;;;;;;11.35;6.43;;;;;;;5.64;100.00;98478.56;5109211;28;20060;-65
2023/03/10 06:56:12;;;;;;;15.48;6.60;;;;;;;5.66;100.00;98489.88;5091912;28;20044;-65
2023/03/10 06:58:40;;;;;;;13.93;6.68;;;;;;;5.68;100.00;98486.88;5093931;27;20040;-65
2023/03/10 07:01:16;;;;;;;11.20;6.88;;;;;;;5.70;100.00;98500.88;5109537;28;20096;-66
2023/03/10 07:03:44;;;;;;;;;;;;;;;5.72;100.00;98490.59;5092699;28;20035;-65
2023/03/10 07:06:12;;;;;;;11.15;6.97;;;;;;;5.71;100.00;98495.19;5108007;28;19949;-62
2023/03/10 07:08:40;;;;;;;10.82;6.82;;;;;;;5.71;100.00;98497.09;5102608;28;20047;-62
2023/03/10 07:11:08;;;;;;;12.95;7.03;;;;;;;5.72;100.00;98504.09;5103952;28;20583;-64
2023/03/10 07:13:37;;;;;;;15.02;8.23;;;;;;;5.70;100.00;98501.69;5090918;28;20051;-66
2023/03/10 07:16:05;;;;;;;13.05;8.50;;;;;;;5.71;100.00;98499.81;5107199;28;20051;-65
2023/03/10 07:18:33;;;;;;;17.20;9.27;;;;;;;5.71;100.00;98507.91;5107579;28;20047;-65
2023/03/10 07:21:01;;;;;;;16.05;9.98;;;;;;;5.68;100.00;98497.69;5109843;28;20051;-66
2023/03/10 07:23:28;;;;;;;16.95;10.13;;;;;;;5.64;100.00;98497.47;5098601;28;20052;-65
2023/03/10 07:25:56;;;;;;;15.55;9.98;;;;;;;5.61;100.00;98491.84;5099749;28;20104;-63
2023/03/10 07:28:25;;;;;;;13.45;9.38;;;;;;;5.53;100.00;98501.41;5109058;28;20082;-65
2023/03/10 07:30:55;;;;;;;15.10;9.65;;;;;;;5.49;100.00;98512.00;5108925;28;20048;-64
2023/03/10 07:33:23;;;;;;;12.88;8.60;;;;;;;5.48;100.00;98518.50;5107618;28;20364;-64
2023/03/10 07:35:51;;;;;;;12.05;8.68;;;;;;;5.46;100.00;98519.84;5088835;28;20364;-63
2023/03/10 07:38:18;;;;;;;13.50;7.95;;;;;;;5.47;100.00;98522.28;5108276;28;20050;-64
2023/03/10 07:40:46;;;;;;;10.88;7.05;;;;;;;5.51;100.00;98522.50;5091082;28;20047;-62
2023/03/10 07:43:14;;;;;;;9.90;6.63;;;;;;;5.54;100.00;98530.81;5073663;28;20047;-63
2023/03/10 07:45:44;;;;;;;10.50;6.53;;;;;;;5.54;100.00;98530.81;5109930;28;20052;-63
2023/03/10 07:48:13;;;;;;;9.55;6.30;;;;;;;5.52;100.00;98538.41;5108668;28;20062;-63
2023/03/10 07:50:41;;;;;;;9.18;4.97;;;;;;;5.43;100.00;98526.66;5114178;28;20495;-64
2023/03/10 07:53:08;;;;;;;6.93;4.93;;;;;;;5.39;100.00;98533.75;5114022;28;20044;-64
2023/03/10 07:55:38;;;;;;;7.63;5.13;;;;;;;5.41;100.00;98531.56;5100971;28;20499;-64
2023/03/10 07:58:05;;;;;;;8.15;4.88;;;;;;;5.38;100.00;98537.50;5112470;28;20040;-63
2023/03/10 08:00:33;;;;;;;8.23;4.65;;;;;;;5.39;100.00;98532.91;5112322;28;20048;-64
2023/03/10 08:03:00;;;;;;;6.70;4.90;;;;;;;5.35;100.00;98532.72;5096334;28;20055;-63
2023/03/10 08:05:28;;;;;;;6.60;4.68;;;;;;;5.38;100.00;98532.13;5105551;28;20179;-64
2023/03/10 08:07:56;;;;;;;6.20;4.47;;;;;;;5.43;100.00;98531.25;5092194;28;20101;-63
2023/03/10 08:10:24;;;;;;;6.13;4.10;;;;;;;5.47;100.00;98534.97;5092003;28;20085;-64
2023/03/10 08:12:53;;;;;;;5.82;4.00;;;;;;;5.53;100.00;98540.03;5092975;28;20081;-65
2023/03/10 08:15:21;;;;;;;6.95;4.53;;;;;;;5.53;100.00;98537.34;5091626;28;20058;-65
2023/03/10 08:17:48;;;;;;;5.75;4.00;;;;;;;5.54;100.00;98533.53;5092719;28;20488;-63
2023/03/10 08:20:16;;;;;;;6.55;4.63;;;;;;;5.58;100.00;98524.81;5093636;28;20044;-64
2023/03/10 08:22:44;;;;;;;5.90;4.30;;;;;;;5.59;100.00;98531.84;5096608;28;20048;-64
2023/03/10 08:25:11;;;;;;;6.95;4.70;;;;;;;5.60;100.00;98538.84;5113253;28;20054;-64
2023/03/10 08:27:40;;;;;;;7.45;4.40;;;;;;;5.62;100.00;98542.06;5116329;28;20047;-62
2023/03/10 08:30:08;;;;;;;5.95;4.35;;;;;;;5.65;100.00;98541.47;5115865;28;20048;-63
2023/03/10 08:32:36;;;;;;;6.75;4.55;;;;;;;5.67;100.00;98542.78;5114979;28;20146;-64
2023/03/10 08:35:05;;;;;;;6.70;4.10;;;;;;;5.70;100.00;98544.09;5096656;28;20079;-63
2023/03/10 08:37:33;;;;;;;5.80;4.22;;;;;;;5.71;100.00;98540.31;5078578;28;20052;-63
2023/03/10 08:40:00;;;;;;;5.93;4.15;;;;;;;5.74;100.00;98543.22;5062046;28;20040;-64
2023/03/10 08:42:28;;;;;;;5.72;4.32;;;;;;;5.75;100.00;98535.94;5086134;28;20047;-64
2023/03/10 08:44:56;;;;;;;6.47;4.30;;;;;;;5.76;100.00;98537.56;5114442;28;20048;-65
2023/03/10 08:47:25;;;;;;;8.02;4.53;;;;;;;5.78;100.00;98539.97;5097811;28;20142;-65
2023/03/10 08:49:56;;;;;;;18.38;5.93;;;;;;;5.83;100.00;98539.88;5115442;28;20048;-63
2023/03/10 08:52:24;;;;;;;5.75;4.70;;;;;;;5.87;100.00;98539.00;5104601;28;20470;-63
2023/03/10 08:54:52;;;;;;;6.70;5.40;;;;;;;5.89;100.00;98539.53;5116385;28;20040;-64
2023/03/10 08:57:20;;;;;;;8.43;5.38;;;;;;;5.90;100.00;98538.41;5114426;27;20169;-65
2023/03/10 08:59:50;;;;;;;8.85;5.65;;;;;;;5.91;100.00;98540.00;5117055;28;20124;-64
2023/03/10 09:02:20;;;;;;;8.85;5.93;;;;;;;5.92;100.00;98536.22;5117066;28;20051;-64
2023/03/10 09:04:50;;;;;;;8.85;5.72;;;;;;;5.93;100.00;98531.63;5097479;28;20519;-64
2023/03/10 09:07:18;;;;;;;8.30;5.80;;;;;;;5.98;100.00;98537.78;5097104;28;20055;-63
2023/03/10 09:09:46;;;;;;;6.35;4.90;;;;;;;6.03;100.00;98530.69;5106566;28;20059;-64
2023/03/10 09:12:13;;;;;;;7.53;5.53;;;;;;;6.10;100.00;98525.72;5124755;28;20431;-63
2023/03/10 09:14:41;;;;;;;7.35;5.82;;;;;;;6.14;100.00;98530.22;5117985;27;20167;-64
2023/03/10 09:17:09;;;;;;;9.45;5.65;;;;;;;6.18;100.00;98531.25;5118447;28;20044;-62
2023/03/10 09:19:38;;;;;;;17.52;7.85;;;;;;;6.26;100.00;98532.47;5130788;27;20065;-64
2023/03/10 09:22:06;;;;;;;11.82;6.53;;;;;;;6.31;100.00;98521.56;5130964;28;20067;-65
2023/03/10 09:24:33;;;;;;;10.05;6.35;;;;;;;6.33;100.00;98534.81;5126966;27;20052;-63
2023/03/10 09:27:01;;;;;;;9.25;6.15;;;;;;;6.32;100.00;98517.75;5109402;27;20048;-65
2023/03/10 09:29:31;;;;;;;12.32;6.68;;;;;;;6.31;100.00;98529.69;5112178;27;20054;-64
2023/03/10 09:32:09;;;;;;;10.57;6.30;;;;;;;6.31;100.00;98531.59;5094660;28;20044;-63
2023/03/10 09:34:37;;;;;;;10.63;6.30;;;;;;;6.31;100.00;98537.00;5078071;28;20119;-63
2023/03/10 09:37:05;;;;;;;19.77;7.20;;;;;;;6.33;100.00;98540.22;5115010;28;20487;-64
2023/03/10 09:39:35;;;;;;;16.95;6.93;;;;;;;6.33;100.00;98535.59;5115215;28;20097;-62
2023/03/10 09:42:25;;;;;;;13.07;7.13;;;;;;;6.35;100.00;98528.00;5115007;28;20471;-62
2023/03/10 09:45:24;;;;;;;10.45;6.25;;;;;;;6.35;100.00;98522.59;5116015;28;20048;-63
2023/03/10 09:48:11;;;;;;;14.50;7.68;;;;;;;6.36;100.00;98507.97;5115434;28;20134;-61
2023/03/10 09:50:44;;;;;;;15.35;7.85;;;;;;;6.39;100.00;98518.19;5115959;28;20046;-64
2023/03/10 09:53:46;;;;;;;12.02;7.85;;;;;;;6.42;100.00;98515.97;5105728;27;20055;-64
2023/03/10 09:56:23;;;;;;;12.18;8.40;;;;;;;6.44;100.00;98522.69;5080838;28;20040;-64
2023/03/10 09:59:14;;;;;;;16.20;9.90;;;;;;;6.46;100.00;98528.63;5115241;28;20043;-65
2023/03/10 10:01:45;;;;;;;15.48;9.10;;;;;;;6.48;100.00;98525.63;5112211;28;20130;-65
2023/03/10 10:04:38;;;;;;;13.63;9.02;;;;;;;6.51;100.00;98527.72;5109800;28;20048;-63
2023/03/10 10:07:13;;;;;;;11.95;8.60;;;;;;;6.54;100.00;98524.41;5063729;28;20094;-64
2023/03/10 10:09:56;;;;;;;15.50;7.40;;;;;;;6.56;100.00;98524.94;5094598;28;20047;-63
2023/03/10 10:12:25;;;;;;;13.73;6.90;;;;;;;6.59;100.00;98527.84;5085259;28;20052;-63
2023/03/10 10:14:59;;;;;;;14.73;7.95;;;;;;;6.63;100.00;98533.47;5076959;28;20051;-63
2023/03/10 10:17:40;;;;;;;13.30;8.18;;;;;;;6.69;100.00;98537.69;5102807;28;20069;-63
2023/03/10 10:20:31;;;;;;;12.63;7.80;;;;;;;6.75;100.00;98530.28;5114175;28;20444;-64
2023/03/10 10:22:58;;;;;;;15.75;8.25;;;;;;;6.76;100.00;98538.09;5074055;28;20052;-63
2023/03/10 10:25:30;;;;;;;18.98;8.73;;;;;;;6.80;100.00;98541.78;5094558;28;20076;-62
2023/03/10 10:27:59;;;;;;;15.23;8.93;;;;;;;6.79;100.00;98561.06;5094641;28;20048;-64
2023/03/10 10:30:27;;;;;;;20.48;8.77;;;;;;;6.85;100.00;98559.06;5076056;28;20127;-65
2023/03/10 10:32:56;;;;;;;35.30;11.60;;;;;;;6.95;100.00;98556.97;5112195;28;20051;-63
2023/03/10 10:35:26;;;;;;;18.70;6.32;;;;;;;7.02;100.00;98549.25;5114454;27;20126;-63
2023/03/10 10:38:10;;;;;;;8.15;3.38;;;;;;;7.06;100.00;98552.16;5114217;28;20046;-64
2023/03/10 10:40:57;;;;;;;29.95;9.98;;;;;;;7.15;100.00;98544.94;5096544;28;20035;-63
2023/03/10 10:43:25;;;;;;;28.60;9.35;;;;;;;7.25;100.00;98547.44;5093670;28;20143;-62
2023/03/10 10:45:55;;;;;;;7.90;2.75;;;;;;;7.24;100.00;98542.34;5093190;27;20040;-62
2023/03/10 10:48:44;;;;;;;13.25;4.68;;;;;;;7.30;100.00;98545.72;5092516;28;20048;-63
2023/03/10 10:51:19;;;;;;;21.67;8.32;;;;;;;7.36;100.00;98547.22;5100624;28;20207;-63
2023/03/10 10:53:47;;;;;;;16.98;6.28;;;;;;;7.40;100.00;98549.00;5109732;28;20040;-63
2023/03/10 10:56:16;;;;;;;31.60;9.68;;;;;;;7.45;100.00;98543.50;5100393;27;20138;-63
2023/03/10 10:58:59;;;;;;;23.10;7.18;;;;;;;7.67;100.00;98550.91;5114162;28;20047;-64
2023/03/10 11:01:27;;;;;;;12.10;3.47;;;;;;;7.64;100.00;98546.06;5096435;27;20087;-64
2023/03/10 11:04:06;;;;;;;12.68;3.80;;;;;;;7.56;100.00;98541.38;5099545;28;20040;-65
2023/03/10 11:06:36;;;;;;;11.50;3.65;;;;;;;7.52;100.00;98545.78;5113510;28;20079;-65
2023/03/10 11:09:07;;;;;;;12.00;3.70;;;;;;;7.48;100.00;98547.53;5094820;28;20138;-66
2023/03/10 11:11:54;;;;;;;12.55;3.92;;;;;;;7.45;100.00;98537.28;5091983;28;20056;-65
2023/03/10 11:14:28;;;;;;;;;;;;;;;7.45;100.00;98537.28;5094294;28;20047;-66
2023/03/10 11:17:22;;;;;;;11.90;3.88;;;;;;;7.46;100.00;98542.41;5103398;28;19919;-64
2023/03/10 11:20:06;;;;;;;12.77;3.95;;;;;;;7.49;100.00;98538.28;5101588;28;20051;-64
2023/03/10 11:22:48;;;;;;;12.63;3.72;;;;;;;7.50;100.00;98534.44;5109767;28;20130;-64
2023/03/10 11:25:19;;;;;;;11.75;3.78;;;;;;;7.52;100.00;98529.53;5112627;28;20044;-65
2023/03/10 11:28:02;;;;;;;10.88;3.90;;;;;;;7.55;100.00;98522.69;5114248;28;20078;-65
2023/03/10 11:30:36;;;;;;;10.73;3.35;;;;;;;7.61;100.00;98518.78;5109956;28;20085;-64
2023/03/10 11:33:34;;;;;;;9.52;3.30;;;;;;;7.63;100.00;98517.38;5095923;28;20093;-66
2023/03/10 11:36:35;;;;;;;10.57;3.60;;;;;;;7.68;100.00;98509.13;5082825;28;20437;-65
2023/03/10 11:39:40;;;;;;;13.70;3.80;;;;;;;7.69;100.00;98510.72;5085858;28;20050;-63
2023/03/10 11:42:34;;;;;;;13.20;3.88;;;;;;;7.68;100.00;98514.53;5110712;28;20074;-65
2023/03/10 11:45:26;;;;;;;11.85;3.63;;;;;;;7.69;100.00;98507.22;5099678;28;20135;-65
2023/03/10 11:48:28;;;;;;;10.88;3.40;;;;;;;7.66;100.00;98497.78;5112729;28;20056;-65
2023/03/10 11:50:59;;;;;;;9.82;2.95;;;;;;;7.67;100.00;98479.59;5073250;28;20054;-64